sensor_id;sensor_type;location;lat;lon;timestamp;temperature;humidity
10644;DHT22;5370;50.132;8.626;2024-02-16T00:00:01;11.60;96.50
10644;DHT22;5370;50.132;8.626;2024-02-16T00:02:27;11.60;96.60
10644;DHT22;5370;50.132;8.626;2024-02-16T00:04:52;11.60;96.60
10644;DHT22;5370;50.132;8.626;2024-02-16T00:07:18;11.50;96.60
10644;DHT22;5370;50.132;8.626;2024-02-16T00:09:43;11.50;96.60
10644;DHT22;5370;50.132;8.626;2024-02-16T00:12:10;11.50;96.60
10644;DHT22;5370;50.132;8.626;2024-02-16T00:14:36;11.50;96.60
10644;DHT22;5370;50.132;8.626;2024-02-16T00:17:02;11.50;96.60
10644;DHT22;5370;50.132;8.626;2024-02-16T00:19:29;11.50;96.70
10644;DHT22;5370;50.132;8.626;2024-02-16T00:21:55;11.50;97.10
10644;DHT22;5370;50.132;8.626;2024-02-16T00:24:21;11.50;96.80
10644;DHT22;5370;50.132;8.626;2024-02-16T00:26:46;11.60;96.90
10644;DHT22;5370;50.132;8.626;2024-02-16T00:29:12;11.60;96.90
10644;DHT22;5370;50.132;8.626;2024-02-16T00:31:38;11.50;96.80
10644;DHT22;5370;50.132;8.626;2024-02-16T00:34:03;11.50;96.80
10644;DHT22;5370;50.132;8.626;2024-02-16T00:36:33;11.50;96.80
10644;DHT22;5370;50.132;8.626;2024-02-16T00:38:59;11.50;96.80
10644;DHT22;5370;50.132;8.626;2024-02-16T00:41:25;11.50;96.80
10644;DHT22;5370;50.132;8.626;2024-02-16T00:43:51;11.50;96.80
10644;DHT22;5370;50.132;8.626;2024-02-16T00:46:20;11.50;96.90
10644;DHT22;5370;50.132;8.626;2024-02-16T00:48:51;11.40;96.80
10644;DHT22;5370;50.132;8.626;2024-02-16T00:51:17;11.40;96.80
10644;DHT22;5370;50.132;8.626;2024-02-16T00:53:42;11.40;96.90
10644;DHT22;5370;50.132;8.626;2024-02-16T00:56:08;11.30;96.80
10644;DHT22;5370;50.132;8.626;2024-02-16T00:58:35;11.30;96.90
10644;DHT22;5370;50.132;8.626;2024-02-16T01:01:00;11.30;96.90
10644;DHT22;5370;50.132;8.626;2024-02-16T01:03:26;11.20;96.90
10644;DHT22;5370;50.132;8.626;2024-02-16T01:05:54;11.20;97.00
10644;DHT22;5370;50.132;8.626;2024-02-16T01:08:20;11.20;97.10
10644;DHT22;5370;50.132;8.626;2024-02-16T01:10:46;11.20;97.20
10644;DHT22;5370;50.132;8.626;2024-02-16T01:13:12;11.20;97.30
10644;DHT22;5370;50.132;8.626;2024-02-16T01:15:38;11.20;97.40
10644;DHT22;5370;50.132;8.626;2024-02-16T01:18:04;11.20;97.50
10644;DHT22;5370;50.132;8.626;2024-02-16T01:20:32;11.20;97.50
10644;DHT22;5370;50.132;8.626;2024-02-16T01:22:58;11.20;97.50
10644;DHT22;5370;50.132;8.626;2024-02-16T01:25:24;11.20;97.50
10644;DHT22;5370;50.132;8.626;2024-02-16T01:27:49;11.20;97.60
10644;DHT22;5370;50.132;8.626;2024-02-16T01:30:15;11.20;97.60
10644;DHT22;5370;50.132;8.626;2024-02-16T01:32:41;11.20;97.70
10644;DHT22;5370;50.132;8.626;2024-02-16T01:35:10;11.20;97.70
10644;DHT22;5370;50.132;8.626;2024-02-16T01:37:36;11.20;97.80
10644;DHT22;5370;50.132;8.626;2024-02-16T01:40:05;11.20;97.80
10644;DHT22;5370;50.132;8.626;2024-02-16T01:42:34;11.20;97.80
10644;DHT22;5370;50.132;8.626;2024-02-16T01:44:59;11.20;97.80
10644;DHT22;5370;50.132;8.626;2024-02-16T01:47:25;11.20;97.80
10644;DHT22;5370;50.132;8.626;2024-02-16T01:49:51;11.20;97.80
10644;DHT22;5370;50.132;8.626;2024-02-16T01:52:17;11.20;97.80
10644;DHT22;5370;50.132;8.626;2024-02-16T01:54:43;11.20;97.80
10644;DHT22;5370;50.132;8.626;2024-02-16T01:57:08;11.10;97.80
10644;DHT22;5370;50.132;8.626;2024-02-16T01:59:36;11.10;97.80
10644;DHT22;5370;50.132;8.626;2024-02-16T02:02:04;11.10;97.80
10644;DHT22;5370;50.132;8.626;2024-02-16T02:04:29;11.10;98.10
10644;DHT22;5370;50.132;8.626;2024-02-16T02:06:55;11.00;97.80
10644;DHT22;5370;50.132;8.626;2024-02-16T02:09:20;11.00;97.90
10644;DHT22;5370;50.132;8.626;2024-02-16T02:11:46;11.00;98.00
10644;DHT22;5370;50.132;8.626;2024-02-16T02:14:11;11.00;98.10
10644;DHT22;5370;50.132;8.626;2024-02-16T02:16:37;11.00;98.20
10644;DHT22;5370;50.132;8.626;2024-02-16T02:19:03;11.00;98.20
10644;DHT22;5370;50.132;8.626;2024-02-16T02:21:28;11.00;98.30
10644;DHT22;5370;50.132;8.626;2024-02-16T02:23:54;10.90;98.30
10644;DHT22;5370;50.132;8.626;2024-02-16T02:26:20;10.90;98.30
10644;DHT22;5370;50.132;8.626;2024-02-16T02:28:46;10.90;98.30
10644;DHT22;5370;50.132;8.626;2024-02-16T02:31:12;10.90;98.40
10644;DHT22;5370;50.132;8.626;2024-02-16T02:33:37;10.90;98.40
10644;DHT22;5370;50.132;8.626;2024-02-16T02:36:03;10.90;98.40
10644;DHT22;5370;50.132;8.626;2024-02-16T02:38:30;10.90;98.40
10644;DHT22;5370;50.132;8.626;2024-02-16T02:40:56;10.90;98.40
10644;DHT22;5370;50.132;8.626;2024-02-16T02:43:22;10.80;98.30
10644;DHT22;5370;50.132;8.626;2024-02-16T02:45:48;10.80;98.30
10644;DHT22;5370;50.132;8.626;2024-02-16T02:48:14;10.80;98.40
10644;DHT22;5370;50.132;8.626;2024-02-16T02:50:39;10.80;98.30
10644;DHT22;5370;50.132;8.626;2024-02-16T02:53:05;10.70;98.30
10644;DHT22;5370;50.132;8.626;2024-02-16T02:55:31;10.70;98.30
10644;DHT22;5370;50.132;8.626;2024-02-16T02:57:57;10.70;98.70
10644;DHT22;5370;50.132;8.626;2024-02-16T03:00:23;10.60;99.10
10644;DHT22;5370;50.132;8.626;2024-02-16T03:02:49;10.60;99.40
10644;DHT22;5370;50.132;8.626;2024-02-16T03:05:14;10.70;99.90
10644;DHT22;5370;50.132;8.626;2024-02-16T03:07:40;10.70;99.90
10644;DHT22;5370;50.132;8.626;2024-02-16T03:10:06;10.70;99.90
10644;DHT22;5370;50.132;8.626;2024-02-16T03:12:34;10.70;99.90
10644;DHT22;5370;50.132;8.626;2024-02-16T03:15:00;10.70;99.90
10644;DHT22;5370;50.132;8.626;2024-02-16T03:17:26;10.80;99.90
10644;DHT22;5370;50.132;8.626;2024-02-16T03:19:51;10.80;99.90
10644;DHT22;5370;50.132;8.626;2024-02-16T03:22:17;10.80;99.90
10644;DHT22;5370;50.132;8.626;2024-02-16T03:24:43;10.90;99.90
10644;DHT22;5370;50.132;8.626;2024-02-16T03:27:10;10.90;99.90
10644;DHT22;5370;50.132;8.626;2024-02-16T03:29:36;10.90;99.90
10644;DHT22;5370;50.132;8.626;2024-02-16T03:32:01;10.90;99.90
10644;DHT22;5370;50.132;8.626;2024-02-16T03:34:27;10.90;99.90
10644;DHT22;5370;50.132;8.626;2024-02-16T03:36:53;10.80;99.90
10644;DHT22;5370;50.132;8.626;2024-02-16T03:39:19;10.90;99.90
10644;DHT22;5370;50.132;8.626;2024-02-16T03:41:45;10.80;99.90
10644;DHT22;5370;50.132;8.626;2024-02-16T03:44:15;10.80;99.90
10644;DHT22;5370;50.132;8.626;2024-02-16T03:46:42;10.80;99.90
10644;DHT22;5370;50.132;8.626;2024-02-16T03:49:08;10.70;99.90
10644;DHT22;5370;50.132;8.626;2024-02-16T03:51:34;10.80;99.90
10644;DHT22;5370;50.132;8.626;2024-02-16T03:53:59;10.80;99.90
10644;DHT22;5370;50.132;8.626;2024-02-16T03:56:25;10.80;99.90
10644;DHT22;5370;50.132;8.626;2024-02-16T03:58:50;10.80;99.90
10644;DHT22;5370;50.132;8.626;2024-02-16T04:01:16;10.80;99.90
10644;DHT22;5370;50.132;8.626;2024-02-16T04:03:41;10.80;99.90
10644;DHT22;5370;50.132;8.626;2024-02-16T04:06:07;10.80;99.90
10644;DHT22;5370;50.132;8.626;2024-02-16T04:08:34;10.80;99.90
10644;DHT22;5370;50.132;8.626;2024-02-16T04:11:00;10.90;99.90
10644;DHT22;5370;50.132;8.626;2024-02-16T04:13:25;10.90;99.90
10644;DHT22;5370;50.132;8.626;2024-02-16T04:15:51;10.90;99.90
10644;DHT22;5370;50.132;8.626;2024-02-16T04:18:17;10.90;99.90
10644;DHT22;5370;50.132;8.626;2024-02-16T04:20:44;10.90;99.90
10644;DHT22;5370;50.132;8.626;2024-02-16T04:23:09;11.00;99.90
10644;DHT22;5370;50.132;8.626;2024-02-16T04:25:35;11.00;99.90
10644;DHT22;5370;50.132;8.626;2024-02-16T04:28:00;11.00;99.90
10644;DHT22;5370;50.132;8.626;2024-02-16T04:30:26;11.00;99.90
10644;DHT22;5370;50.132;8.626;2024-02-16T04:32:51;11.10;99.90
10644;DHT22;5370;50.132;8.626;2024-02-16T04:35:18;11.10;99.80
10644;DHT22;5370;50.132;8.626;2024-02-16T04:37:43;11.10;99.40
10644;DHT22;5370;50.132;8.626;2024-02-16T04:40:09;11.10;99.10
10644;DHT22;5370;50.132;8.626;2024-02-16T04:42:37;11.10;99.00
10644;DHT22;5370;50.132;8.626;2024-02-16T04:45:03;11.00;99.10
10644;DHT22;5370;50.132;8.626;2024-02-16T04:47:29;11.00;99.10
10644;DHT22;5370;50.132;8.626;2024-02-16T04:49:54;11.00;99.10
10644;DHT22;5370;50.132;8.626;2024-02-16T04:52:20;11.00;99.00
10644;DHT22;5370;50.132;8.626;2024-02-16T04:54:45;11.00;98.80
10644;DHT22;5370;50.132;8.626;2024-02-16T04:57:11;11.00;98.90
10644;DHT22;5370;50.132;8.626;2024-02-16T04:59:36;11.00;98.70
10644;DHT22;5370;50.132;8.626;2024-02-16T05:02:02;10.90;98.80
10644;DHT22;5370;50.132;8.626;2024-02-16T05:04:29;10.90;98.90
10644;DHT22;5370;50.132;8.626;2024-02-16T05:06:54;11.00;99.10
10644;DHT22;5370;50.132;8.626;2024-02-16T05:09:23;11.00;99.10
10644;DHT22;5370;50.132;8.626;2024-02-16T05:11:50;11.00;99.20
10644;DHT22;5370;50.132;8.626;2024-02-16T05:14:16;11.00;99.20
10644;DHT22;5370;50.132;8.626;2024-02-16T05:16:46;11.10;99.00
10644;DHT22;5370;50.132;8.626;2024-02-16T05:19:12;11.10;98.90
10644;DHT22;5370;50.132;8.626;2024-02-16T05:21:37;11.10;99.00
10644;DHT22;5370;50.132;8.626;2024-02-16T05:24:03;11.10;99.10
10644;DHT22;5370;50.132;8.626;2024-02-16T05:26:29;11.10;99.10
10644;DHT22;5370;50.132;8.626;2024-02-16T05:28:54;11.10;99.10
10644;DHT22;5370;50.132;8.626;2024-02-16T05:31:20;11.10;98.80
10644;DHT22;5370;50.132;8.626;2024-02-16T05:33:50;11.10;98.60
10644;DHT22;5370;50.132;8.626;2024-02-16T05:36:19;11.10;98.40
10644;DHT22;5370;50.132;8.626;2024-02-16T05:38:46;11.00;98.30
10644;DHT22;5370;50.132;8.626;2024-02-16T05:41:12;11.00;98.60
10644;DHT22;5370;50.132;8.626;2024-02-16T05:43:37;11.00;98.70
10644;DHT22;5370;50.132;8.626;2024-02-16T05:46:03;11.00;98.80
10644;DHT22;5370;50.132;8.626;2024-02-16T05:48:32;11.00;98.80
10644;DHT22;5370;50.132;8.626;2024-02-16T05:51:00;11.00;98.70
10644;DHT22;5370;50.132;8.626;2024-02-16T05:53:27;11.00;98.70
10644;DHT22;5370;50.132;8.626;2024-02-16T05:55:53;11.00;98.60
10644;DHT22;5370;50.132;8.626;2024-02-16T05:58:19;11.00;98.60
10644;DHT22;5370;50.132;8.626;2024-02-16T06:00:44;11.00;98.70
10644;DHT22;5370;50.132;8.626;2024-02-16T06:03:13;11.00;98.70
10644;DHT22;5370;50.132;8.626;2024-02-16T06:05:38;11.00;98.70
10644;DHT22;5370;50.132;8.626;2024-02-16T06:08:09;11.00;98.70
10644;DHT22;5370;50.132;8.626;2024-02-16T06:10:35;10.90;98.70
10644;DHT22;5370;50.132;8.626;2024-02-16T06:13:00;10.90;98.70
10644;DHT22;5370;50.132;8.626;2024-02-16T06:15:26;10.90;98.70
10644;DHT22;5370;50.132;8.626;2024-02-16T06:17:52;10.90;98.70
10644;DHT22;5370;50.132;8.626;2024-02-16T06:20:18;10.90;98.80
10644;DHT22;5370;50.132;8.626;2024-02-16T06:22:43;10.90;98.90
10644;DHT22;5370;50.132;8.626;2024-02-16T06:25:09;10.90;99.20
10644;DHT22;5370;50.132;8.626;2024-02-16T06:27:35;10.90;99.60
10644;DHT22;5370;50.132;8.626;2024-02-16T06:30:01;10.90;99.90
10644;DHT22;5370;50.132;8.626;2024-02-16T06:32:27;10.90;99.90
10644;DHT22;5370;50.132;8.626;2024-02-16T06:34:53;10.90;99.90
10644;DHT22;5370;50.132;8.626;2024-02-16T06:37:19;10.90;99.90
10644;DHT22;5370;50.132;8.626;2024-02-16T06:39:45;10.90;99.90
10644;DHT22;5370;50.132;8.626;2024-02-16T06:42:10;10.90;99.90
10644;DHT22;5370;50.132;8.626;2024-02-16T06:44:39;10.90;99.90
10644;DHT22;5370;50.132;8.626;2024-02-16T06:47:05;10.90;99.90
10644;DHT22;5370;50.132;8.626;2024-02-16T06:49:31;10.90;99.90
10644;DHT22;5370;50.132;8.626;2024-02-16T06:51:57;10.80;99.80
10644;DHT22;5370;50.132;8.626;2024-02-16T06:54:22;10.80;99.70
10644;DHT22;5370;50.132;8.626;2024-02-16T06:56:49;10.80;99.80
10644;DHT22;5370;50.132;8.626;2024-02-16T06:59:17;10.80;99.80
10644;DHT22;5370;50.132;8.626;2024-02-16T07:01:42;10.80;99.90
10644;DHT22;5370;50.132;8.626;2024-02-16T07:04:08;10.80;99.90
10644;DHT22;5370;50.132;8.626;2024-02-16T07:06:34;10.90;99.90
10644;DHT22;5370;50.132;8.626;2024-02-16T07:09:00;10.90;99.90
10644;DHT22;5370;50.132;8.626;2024-02-16T07:11:26;11.00;99.90
10644;DHT22;5370;50.132;8.626;2024-02-16T07:13:51;11.00;99.90
10644;DHT22;5370;50.132;8.626;2024-02-16T07:16:17;11.10;99.90
10644;DHT22;5370;50.132;8.626;2024-02-16T07:18:44;11.20;99.90
10644;DHT22;5370;50.132;8.626;2024-02-16T07:21:09;11.20;99.90
10644;DHT22;5370;50.132;8.626;2024-02-16T07:23:35;11.30;99.90
10644;DHT22;5370;50.132;8.626;2024-02-16T07:26:01;11.40;99.90
10644;DHT22;5370;50.132;8.626;2024-02-16T07:28:27;11.40;99.90
10644;DHT22;5370;50.132;8.626;2024-02-16T07:30:53;11.50;99.90
10644;DHT22;5370;50.132;8.626;2024-02-16T07:33:19;11.60;99.90
10644;DHT22;5370;50.132;8.626;2024-02-16T07:35:45;11.70;99.90
10644;DHT22;5370;50.132;8.626;2024-02-16T07:38:11;11.80;99.90
10644;DHT22;5370;50.132;8.626;2024-02-16T07:40:36;11.90;99.90
10644;DHT22;5370;50.132;8.626;2024-02-16T07:43:02;12.00;99.90
10644;DHT22;5370;50.132;8.626;2024-02-16T07:45:28;12.00;99.90
10644;DHT22;5370;50.132;8.626;2024-02-16T07:47:54;12.10;99.80
10644;DHT22;5370;50.132;8.626;2024-02-16T07:50:23;12.20;99.70
10644;DHT22;5370;50.132;8.626;2024-02-16T07:52:50;12.40;99.70
10644;DHT22;5370;50.132;8.626;2024-02-16T07:55:16;12.50;99.40
10644;DHT22;5370;50.132;8.626;2024-02-16T07:57:44;12.60;99.30
10644;DHT22;5370;50.132;8.626;2024-02-16T08:00:10;12.70;99.10
10644;DHT22;5370;50.132;8.626;2024-02-16T08:02:36;12.90;98.90
10644;DHT22;5370;50.132;8.626;2024-02-16T08:05:02;13.00;98.60
10644;DHT22;5370;50.132;8.626;2024-02-16T08:07:28;13.10;98.20
10644;DHT22;5370;50.132;8.626;2024-02-16T08:09:53;13.20;97.80
10644;DHT22;5370;50.132;8.626;2024-02-16T08:12:19;13.30;97.40
10644;DHT22;5370;50.132;8.626;2024-02-16T08:14:44;13.40;97.10
10644;DHT22;5370;50.132;8.626;2024-02-16T08:17:11;13.50;96.70
10644;DHT22;5370;50.132;8.626;2024-02-16T08:19:37;13.50;96.30
10644;DHT22;5370;50.132;8.626;2024-02-16T08:22:08;13.50;96.00
10644;DHT22;5370;50.132;8.626;2024-02-16T08:24:35;13.60;95.80
10644;DHT22;5370;50.132;8.626;2024-02-16T08:27:01;13.60;95.60
10644;DHT22;5370;50.132;8.626;2024-02-16T08:29:27;13.60;95.40
10644;DHT22;5370;50.132;8.626;2024-02-16T08:31:54;13.70;95.30
10644;DHT22;5370;50.132;8.626;2024-02-16T08:34:19;13.80;95.10
10644;DHT22;5370;50.132;8.626;2024-02-16T08:36:48;13.80;94.90
10644;DHT22;5370;50.132;8.626;2024-02-16T08:39:15;13.90;94.60
10644;DHT22;5370;50.132;8.626;2024-02-16T08:41:41;14.00;94.40
10644;DHT22;5370;50.132;8.626;2024-02-16T08:44:07;14.00;94.10
10644;DHT22;5370;50.132;8.626;2024-02-16T08:46:36;14.10;93.80
10644;DHT22;5370;50.132;8.626;2024-02-16T08:49:05;14.20;93.40
10644;DHT22;5370;50.132;8.626;2024-02-16T08:51:34;14.20;93.10
10644;DHT22;5370;50.132;8.626;2024-02-16T08:54:00;14.20;92.90
10644;DHT22;5370;50.132;8.626;2024-02-16T08:56:27;14.30;92.70
10644;DHT22;5370;50.132;8.626;2024-02-16T08:58:52;14.30;92.40
10644;DHT22;5370;50.132;8.626;2024-02-16T09:01:18;14.40;92.20
10644;DHT22;5370;50.132;8.626;2024-02-16T09:03:44;14.40;91.90
10644;DHT22;5370;50.132;8.626;2024-02-16T09:06:09;14.50;91.70
10644;DHT22;5370;50.132;8.626;2024-02-16T09:08:35;14.50;91.40
10644;DHT22;5370;50.132;8.626;2024-02-16T09:11:05;14.50;91.20
10644;DHT22;5370;50.132;8.626;2024-02-16T09:13:35;14.60;91.00
10644;DHT22;5370;50.132;8.626;2024-02-16T09:16:02;14.60;90.80
10644;DHT22;5370;50.132;8.626;2024-02-16T09:18:29;14.60;90.70
10644;DHT22;5370;50.132;8.626;2024-02-16T09:20:55;14.60;90.50
10644;DHT22;5370;50.132;8.626;2024-02-16T09:23:20;14.60;90.40
10644;DHT22;5370;50.132;8.626;2024-02-16T09:25:46;14.60;90.30
10644;DHT22;5370;50.132;8.626;2024-02-16T09:28:12;14.60;90.20
10644;DHT22;5370;50.132;8.626;2024-02-16T09:30:38;14.70;90.00
10644;DHT22;5370;50.132;8.626;2024-02-16T09:33:04;14.60;89.80
10644;DHT22;5370;50.132;8.626;2024-02-16T09:35:29;14.70;89.70
10644;DHT22;5370;50.132;8.626;2024-02-16T09:37:55;14.70;89.40
10644;DHT22;5370;50.132;8.626;2024-02-16T09:40:21;14.70;89.00
10644;DHT22;5370;50.132;8.626;2024-02-16T09:42:50;14.70;88.90
10644;DHT22;5370;50.132;8.626;2024-02-16T09:45:16;14.80;88.70
10644;DHT22;5370;50.132;8.626;2024-02-16T09:47:45;14.80;88.50
10644;DHT22;5370;50.132;8.626;2024-02-16T09:50:15;14.90;88.50
10644;DHT22;5370;50.132;8.626;2024-02-16T09:52:41;14.90;88.20
10644;DHT22;5370;50.132;8.626;2024-02-16T09:55:13;15.00;87.90
10644;DHT22;5370;50.132;8.626;2024-02-16T09:57:39;15.10;87.70
10644;DHT22;5370;50.132;8.626;2024-02-16T10:00:04;15.20;87.30
10644;DHT22;5370;50.132;8.626;2024-02-16T10:02:43;15.40;87.00
10644;DHT22;5370;50.132;8.626;2024-02-16T10:05:16;15.60;86.70
10644;DHT22;5370;50.132;8.626;2024-02-16T10:07:43;15.70;86.30
10644;DHT22;5370;50.132;8.626;2024-02-16T10:10:25;15.90;85.70
10644;DHT22;5370;50.132;8.626;2024-02-16T10:13:04;16.10;84.90
10644;DHT22;5370;50.132;8.626;2024-02-16T10:15:31;16.40;84.40
10644;DHT22;5370;50.132;8.626;2024-02-16T10:18:00;16.60;83.40
10644;DHT22;5370;50.132;8.626;2024-02-16T10:20:27;16.70;81.70
10644;DHT22;5370;50.132;8.626;2024-02-16T10:23:03;16.80;80.80
10644;DHT22;5370;50.132;8.626;2024-02-16T10:25:29;17.00;79.90
10644;DHT22;5370;50.132;8.626;2024-02-16T10:27:55;17.00;79.00
10644;DHT22;5370;50.132;8.626;2024-02-16T10:30:30;17.10;78.30
10644;DHT22;5370;50.132;8.626;2024-02-16T10:32:58;17.20;77.80
10644;DHT22;5370;50.132;8.626;2024-02-16T10:35:25;17.30;77.10
10644;DHT22;5370;50.132;8.626;2024-02-16T10:37:51;17.30;76.40
10644;DHT22;5370;50.132;8.626;2024-02-16T10:40:19;17.40;76.10
10644;DHT22;5370;50.132;8.626;2024-02-16T10:42:46;17.40;75.70
10644;DHT22;5370;50.132;8.626;2024-02-16T10:45:13;17.40;75.30
10644;DHT22;5370;50.132;8.626;2024-02-16T10:47:39;17.50;74.90
10644;DHT22;5370;50.132;8.626;2024-02-16T10:50:05;17.50;74.20
10644;DHT22;5370;50.132;8.626;2024-02-16T10:52:32;17.50;73.90
10644;DHT22;5370;50.132;8.626;2024-02-16T10:54:58;17.40;73.40
10644;DHT22;5370;50.132;8.626;2024-02-16T10:57:24;17.40;72.90
10644;DHT22;5370;50.132;8.626;2024-02-16T10:59:52;17.40;72.70
10644;DHT22;5370;50.132;8.626;2024-02-16T11:02:19;17.40;72.40
10644;DHT22;5370;50.132;8.626;2024-02-16T11:04:46;17.40;72.30
10644;DHT22;5370;50.132;8.626;2024-02-16T11:07:17;17.40;72.20
10644;DHT22;5370;50.132;8.626;2024-02-16T11:09:44;17.40;71.80
10644;DHT22;5370;50.132;8.626;2024-02-16T11:12:12;17.40;71.50
10644;DHT22;5370;50.132;8.626;2024-02-16T11:14:43;17.40;70.90
10644;DHT22;5370;50.132;8.626;2024-02-16T11:17:13;17.40;70.60
10644;DHT22;5370;50.132;8.626;2024-02-16T11:19:43;17.30;70.20
10644;DHT22;5370;50.132;8.626;2024-02-16T11:22:09;17.30;70.30
10644;DHT22;5370;50.132;8.626;2024-02-16T11:24:43;17.30;70.20
10644;DHT22;5370;50.132;8.626;2024-02-16T11:27:10;17.30;70.10
10644;DHT22;5370;50.132;8.626;2024-02-16T11:29:36;17.20;69.90
10644;DHT22;5370;50.132;8.626;2024-02-16T11:32:07;17.20;69.80
10644;DHT22;5370;50.132;8.626;2024-02-16T11:34:33;17.20;69.70
10644;DHT22;5370;50.132;8.626;2024-02-16T11:37:01;17.20;69.70
10644;DHT22;5370;50.132;8.626;2024-02-16T11:39:28;17.10;69.50
10644;DHT22;5370;50.132;8.626;2024-02-16T11:42:09;17.10;69.50
10644;DHT22;5370;50.132;8.626;2024-02-16T11:44:39;17.00;69.30
10644;DHT22;5370;50.132;8.626;2024-02-16T11:47:06;17.00;70.10
10644;DHT22;5370;50.132;8.626;2024-02-16T11:49:36;16.90;69.40
10644;DHT22;5370;50.132;8.626;2024-02-16T11:52:04;16.90;69.40
10644;DHT22;5370;50.132;8.626;2024-02-16T11:54:29;17.00;69.70
10644;DHT22;5370;50.132;8.626;2024-02-16T11:56:56;17.00;69.90
10644;DHT22;5370;50.132;8.626;2024-02-16T11:59:22;17.20;69.80
10644;DHT22;5370;50.132;8.626;2024-02-16T12:04:25;17.40;68.90
10644;DHT22;5370;50.132;8.626;2024-02-16T12:06:56;17.60;68.60
10644;DHT22;5370;50.132;8.626;2024-02-16T12:09:22;17.60;68.20
10644;DHT22;5370;50.132;8.626;2024-02-16T12:11:54;17.70;68.00
10644;DHT22;5370;50.132;8.626;2024-02-16T12:14:23;17.80;67.80
10644;DHT22;5370;50.132;8.626;2024-02-16T12:16:55;17.80;67.50
10644;DHT22;5370;50.132;8.626;2024-02-16T12:19:21;17.80;67.30
10644;DHT22;5370;50.132;8.626;2024-02-16T12:21:57;17.90;67.30
10644;DHT22;5370;50.132;8.626;2024-02-16T12:24:23;17.90;67.00
10644;DHT22;5370;50.132;8.626;2024-02-16T12:26:49;17.90;67.00
10644;DHT22;5370;50.132;8.626;2024-02-16T12:29:15;17.90;67.00
10644;DHT22;5370;50.132;8.626;2024-02-16T12:31:42;17.90;66.80
10644;DHT22;5370;50.132;8.626;2024-02-16T12:34:09;18.00;66.70
10644;DHT22;5370;50.132;8.626;2024-02-16T12:36:35;18.00;66.70
10644;DHT22;5370;50.132;8.626;2024-02-16T12:39:01;18.00;66.70
10644;DHT22;5370;50.132;8.626;2024-02-16T12:41:32;18.00;66.50
10644;DHT22;5370;50.132;8.626;2024-02-16T12:43:58;18.00;66.50
10644;DHT22;5370;50.132;8.626;2024-02-16T12:46:23;18.00;66.50
10644;DHT22;5370;50.132;8.626;2024-02-16T12:48:53;18.10;67.10
10644;DHT22;5370;50.132;8.626;2024-02-16T12:51:19;18.10;66.30
10644;DHT22;5370;50.132;8.626;2024-02-16T12:53:44;18.20;66.10
10644;DHT22;5370;50.132;8.626;2024-02-16T12:56:10;18.20;66.00
10644;DHT22;5370;50.132;8.626;2024-02-16T12:58:36;18.30;65.80
10644;DHT22;5370;50.132;8.626;2024-02-16T13:01:06;18.40;65.50
10644;DHT22;5370;50.132;8.626;2024-02-16T13:03:35;18.40;65.20
10644;DHT22;5370;50.132;8.626;2024-02-16T13:06:01;18.50;64.90
10644;DHT22;5370;50.132;8.626;2024-02-16T13:08:28;18.50;64.70
10644;DHT22;5370;50.132;8.626;2024-02-16T13:10:54;18.50;64.40
10644;DHT22;5370;50.132;8.626;2024-02-16T13:13:19;18.60;63.80
10644;DHT22;5370;50.132;8.626;2024-02-16T13:15:46;18.60;63.40
10644;DHT22;5370;50.132;8.626;2024-02-16T13:18:16;18.60;63.00
10644;DHT22;5370;50.132;8.626;2024-02-16T13:20:41;18.60;62.70
10644;DHT22;5370;50.132;8.626;2024-02-16T13:23:08;18.50;62.60
10644;DHT22;5370;50.132;8.626;2024-02-16T13:25:35;18.50;62.80
10644;DHT22;5370;50.132;8.626;2024-02-16T13:28:00;18.50;62.90
10644;DHT22;5370;50.132;8.626;2024-02-16T13:30:26;18.60;63.00
10644;DHT22;5370;50.132;8.626;2024-02-16T13:32:53;18.60;62.80
10644;DHT22;5370;50.132;8.626;2024-02-16T13:35:19;18.60;62.70
10644;DHT22;5370;50.132;8.626;2024-02-16T13:37:44;18.60;62.60
10644;DHT22;5370;50.132;8.626;2024-02-16T13:40:10;18.60;62.60
10644;DHT22;5370;50.132;8.626;2024-02-16T13:42:40;18.50;62.60
10644;DHT22;5370;50.132;8.626;2024-02-16T13:45:09;18.50;62.70
10644;DHT22;5370;50.132;8.626;2024-02-16T13:47:36;18.50;62.90
10644;DHT22;5370;50.132;8.626;2024-02-16T13:50:02;18.50;63.10
10644;DHT22;5370;50.132;8.626;2024-02-16T13:52:27;18.50;63.10
10644;DHT22;5370;50.132;8.626;2024-02-16T13:54:53;18.40;62.90
10644;DHT22;5370;50.132;8.626;2024-02-16T13:57:19;18.40;63.00
10644;DHT22;5370;50.132;8.626;2024-02-16T13:59:45;18.40;63.00
10644;DHT22;5370;50.132;8.626;2024-02-16T14:02:12;18.50;63.60
10644;DHT22;5370;50.132;8.626;2024-02-16T14:04:38;18.50;63.80
10644;DHT22;5370;50.132;8.626;2024-02-16T14:07:04;18.50;64.00
10644;DHT22;5370;50.132;8.626;2024-02-16T14:09:30;18.60;64.00
10644;DHT22;5370;50.132;8.626;2024-02-16T14:11:56;18.50;63.70
10644;DHT22;5370;50.132;8.626;2024-02-16T14:14:24;18.60;64.20
10644;DHT22;5370;50.132;8.626;2024-02-16T14:16:50;18.60;63.90
10644;DHT22;5370;50.132;8.626;2024-02-16T14:19:15;18.70;64.10
10644;DHT22;5370;50.132;8.626;2024-02-16T14:21:43;18.70;63.90
10644;DHT22;5370;50.132;8.626;2024-02-16T14:24:08;18.60;63.80
10644;DHT22;5370;50.132;8.626;2024-02-16T14:26:36;18.60;63.80
10644;DHT22;5370;50.132;8.626;2024-02-16T14:29:01;18.50;64.30
10644;DHT22;5370;50.132;8.626;2024-02-16T14:31:27;18.40;64.60
10644;DHT22;5370;50.132;8.626;2024-02-16T14:33:52;18.40;65.20
10644;DHT22;5370;50.132;8.626;2024-02-16T14:36:19;18.30;66.20
10644;DHT22;5370;50.132;8.626;2024-02-16T14:38:44;18.30;66.20
10644;DHT22;5370;50.132;8.626;2024-02-16T14:41:10;18.20;67.20
10644;DHT22;5370;50.132;8.626;2024-02-16T14:43:35;18.20;67.50
10644;DHT22;5370;50.132;8.626;2024-02-16T14:46:01;18.10;67.50
10644;DHT22;5370;50.132;8.626;2024-02-16T14:48:29;18.10;68.40
10644;DHT22;5370;50.132;8.626;2024-02-16T14:50:55;18.10;68.10
10644;DHT22;5370;50.132;8.626;2024-02-16T14:53:21;18.10;68.40
10644;DHT22;5370;50.132;8.626;2024-02-16T14:55:47;18.10;68.40
10644;DHT22;5370;50.132;8.626;2024-02-16T14:58:13;18.10;68.00
10644;DHT22;5370;50.132;8.626;2024-02-16T15:00:39;18.10;67.70
10644;DHT22;5370;50.132;8.626;2024-02-16T15:03:04;18.10;67.60
10644;DHT22;5370;50.132;8.626;2024-02-16T15:05:30;18.10;68.40
10644;DHT22;5370;50.132;8.626;2024-02-16T15:07:56;18.00;67.60
10644;DHT22;5370;50.132;8.626;2024-02-16T15:10:21;17.90;67.90
10644;DHT22;5370;50.132;8.626;2024-02-16T15:12:47;17.80;68.10
10644;DHT22;5370;50.132;8.626;2024-02-16T15:15:13;17.80;68.60
10644;DHT22;5370;50.132;8.626;2024-02-16T15:17:39;17.70;68.90
10644;DHT22;5370;50.132;8.626;2024-02-16T15:20:06;17.60;68.90
10644;DHT22;5370;50.132;8.626;2024-02-16T15:22:32;17.50;69.10
10644;DHT22;5370;50.132;8.626;2024-02-16T15:24:58;17.50;69.30
10644;DHT22;5370;50.132;8.626;2024-02-16T15:27:24;17.40;69.20
10644;DHT22;5370;50.132;8.626;2024-02-16T15:29:50;17.30;69.50
10644;DHT22;5370;50.132;8.626;2024-02-16T15:32:16;17.30;69.60
10644;DHT22;5370;50.132;8.626;2024-02-16T15:34:42;17.20;69.60
10644;DHT22;5370;50.132;8.626;2024-02-16T15:37:12;17.10;69.70
10644;DHT22;5370;50.132;8.626;2024-02-16T15:39:38;17.00;69.90
10644;DHT22;5370;50.132;8.626;2024-02-16T15:42:05;17.00;70.20